createdAt,value
2022-10-13T00:02:17.848Z,18.28
2022-10-13T00:05:20.737Z,18.32
2022-10-13T00:08:24.998Z,18.32
2022-10-13T00:11:29.609Z,18.28
2022-10-13T00:14:32.873Z,18.28
2022-10-13T00:17:36.586Z,18.28
2022-10-13T00:20:44.763Z,18.29
2022-10-13T00:23:47.012Z,18.25
2022-10-13T00:26:54.777Z,18.26
2022-10-13T00:29:57.077Z,18.26
2022-10-13T00:32:59.266Z,18.25
2022-10-13T00:36:01.585Z,18.24
2022-10-13T00:39:04.267Z,18.25
2022-10-13T00:42:08.207Z,18.24
2022-10-13T00:45:24.234Z,18.22
2022-10-13T00:48:30.859Z,18.21
2022-10-13T00:51:38.295Z,18.25
2022-10-13T00:54:41.791Z,18.22
2022-10-13T00:57:48.009Z,18.22
2022-10-13T01:00:52.635Z,18.21
2022-10-13T01:03:54.834Z,18.25
2022-10-13T01:06:56.924Z,18.24
2022-10-13T01:10:01.264Z,18.25
2022-10-13T01:13:23.880Z,18.24
2022-10-13T01:16:44.369Z,18.25
2022-10-13T01:20:18.146Z,18.25
2022-10-13T01:23:29.475Z,18.24
2022-10-13T01:26:38.232Z,18.24
2022-10-13T01:30:02.670Z,18.26
2022-10-13T01:33:08.104Z,18.26
2022-10-13T01:36:13.454Z,18.26
2022-10-13T01:39:40.443Z,18.28
2022-10-13T01:43:02.176Z,18.25
2022-10-13T01:46:16.824Z,18.26
2022-10-13T01:49:22.451Z,18.28
2022-10-13T01:52:28.651Z,18.26
2022-10-13T01:55:32.047Z,18.28
2022-10-13T01:58:36.946Z,18.28
2022-10-13T02:01:54.766Z,18.28
2022-10-13T02:05:10.466Z,18.25
2022-10-13T02:08:38.202Z,18.26
2022-10-13T02:11:47.134Z,18.26
2022-10-13T02:14:50.987Z,18.25
2022-10-13T02:17:53.868Z,18.25
2022-10-13T02:20:56.960Z,18.22
2022-10-13T02:23:59.586Z,18.22
2022-10-13T02:27:03.399Z,18.22
2022-10-13T02:30:06.567Z,18.25
2022-10-13T02:33:09.864Z,18.26
2022-10-13T02:36:12.958Z,18.25
2022-10-13T02:39:16.110Z,18.24
2022-10-13T02:42:19.161Z,18.24
2022-10-13T02:45:21.880Z,18.25
2022-10-13T02:48:25.063Z,18.24
2022-10-13T02:51:27.676Z,18.24
2022-10-13T02:54:30.697Z,18.24
2022-10-13T02:57:33.265Z,18.24
2022-10-13T03:00:35.349Z,18.25
2022-10-13T03:03:38.827Z,18.25
2022-10-13T03:06:40.712Z,18.24
2022-10-13T03:09:43.231Z,18.24
2022-10-13T03:12:45.209Z,18.22
2022-10-13T03:15:47.881Z,18.22
2022-10-13T03:18:49.744Z,18.24
2022-10-13T03:21:52.292Z,18.25
2022-10-13T03:24:55.644Z,18.25
2022-10-13T03:27:58.150Z,18.26
2022-10-13T03:31:11.883Z,18.24
2022-10-13T03:34:17.562Z,18.22
2022-10-13T03:37:20.027Z,18.24
2022-10-13T03:40:22.853Z,18.22
2022-10-13T03:43:25.535Z,18.25
2022-10-13T03:46:32.592Z,18.26
2022-10-13T03:49:34.657Z,18.26
2022-10-13T03:52:37.714Z,18.26
2022-10-13T03:55:39.740Z,18.25
2022-10-13T03:58:42.925Z,18.25
2022-10-13T04:01:45.083Z,18.24
2022-10-13T04:04:47.633Z,18.26
2022-10-13T04:07:49.928Z,18.24
2022-10-13T04:11:06.591Z,18.24
2022-10-13T04:14:09.175Z,18.25
2022-10-13T04:17:11.861Z,18.25
2022-10-13T04:20:14.123Z,18.24
2022-10-13T04:23:16.585Z,18.24
2022-10-13T04:26:25.201Z,18.25
2022-10-13T04:29:27.550Z,18.25
2022-10-13T04:32:29.931Z,18.25
2022-10-13T04:35:32.995Z,18.25
2022-10-13T04:38:35.303Z,18.22
2022-10-13T04:41:37.484Z,18.26
2022-10-13T04:44:40.226Z,18.28
2022-10-13T04:47:43.725Z,18.26
2022-10-13T04:50:45.710Z,18.32
2022-10-13T04:53:48.427Z,18.29
2022-10-13T04:56:52.746Z,18.29
2022-10-13T04:59:55.908Z,18.30
2022-10-13T05:02:58.068Z,18.29
2022-10-13T05:06:01.388Z,18.33
2022-10-13T05:09:04.279Z,18.33
2022-10-13T05:12:07.794Z,18.32
2022-10-13T05:15:10.229Z,18.35
2022-10-13T05:18:12.959Z,18.32
2022-10-13T05:21:20.307Z,18.32
2022-10-13T05:24:31.224Z,18.28
2022-10-13T05:27:33.521Z,18.30
2022-10-13T05:30:39.532Z,18.30
2022-10-13T05:33:42.812Z,18.29
2022-10-13T05:36:45.575Z,18.28
2022-10-13T05:39:48.943Z,18.26
2022-10-13T05:42:51.628Z,18.30
2022-10-13T05:45:54.720Z,18.30
2022-10-13T05:48:57.509Z,18.29
2022-10-13T05:52:04.337Z,18.28
2022-10-13T05:55:12.188Z,18.29
2022-10-13T05:58:14.971Z,18.30
2022-10-13T06:01:22.020Z,18.32
2022-10-13T06:04:35.802Z,18.29
2022-10-13T06:07:38.519Z,18.28
2022-10-13T06:10:43.010Z,18.28
2022-10-13T06:13:45.386Z,18.26
2022-10-13T06:16:47.399Z,18.28
2022-10-13T06:19:50.028Z,18.28
2022-10-13T06:22:52.126Z,18.28
2022-10-13T06:25:54.681Z,18.29
2022-10-13T06:28:59.746Z,18.32
2022-10-13T06:32:03.629Z,18.28
2022-10-13T06:35:06.428Z,18.29
2022-10-13T06:38:09.500Z,18.29
2022-10-13T06:41:14.515Z,18.29
2022-10-13T06:44:17.261Z,18.26
2022-10-13T06:47:19.336Z,18.29
2022-10-13T06:50:22.657Z,18.32
2022-10-13T06:53:24.680Z,18.29
2022-10-13T06:56:30.290Z,18.32
2022-10-13T06:59:34.148Z,18.32
2022-10-13T07:02:36.510Z,18.32
2022-10-13T07:05:38.514Z,18.33
2022-10-13T07:08:41.158Z,18.36
2022-10-13T07:11:47.161Z,18.33
2022-10-13T07:14:49.874Z,18.35
2022-10-13T07:17:54.233Z,18.32
2022-10-13T07:20:58.757Z,18.36
2022-10-13T07:24:02.832Z,18.35
2022-10-13T07:27:07.896Z,18.35
2022-10-13T07:30:11.433Z,18.37
2022-10-13T07:33:14.220Z,18.35
2022-10-13T07:36:16.163Z,18.39
2022-10-13T07:39:18.416Z,18.39
2022-10-13T07:42:20.479Z,18.42
2022-10-13T07:45:23.205Z,18.45
2022-10-13T07:48:26.150Z,18.45
2022-10-13T07:51:30.827Z,18.45
2022-10-13T07:54:33.659Z,18.47
2022-10-13T07:57:36.129Z,18.49
2022-10-13T08:00:38.024Z,18.52
2022-10-13T08:03:44.210Z,18.49
2022-10-13T08:06:51.662Z,18.52
2022-10-13T08:09:54.197Z,18.52
2022-10-13T08:12:56.411Z,18.55
2022-10-13T08:16:01.571Z,18.55
2022-10-13T08:19:03.862Z,18.55
2022-10-13T08:22:09.647Z,18.56
2022-10-13T08:25:12.991Z,18.59
2022-10-13T08:28:21.885Z,18.56
2022-10-13T08:31:24.341Z,18.59
2022-10-13T08:34:28.488Z,18.60
2022-10-13T08:37:30.361Z,18.66
2022-10-13T08:40:33.448Z,18.60
2022-10-13T08:43:49.077Z,18.61
2022-10-13T08:47:13.208Z,18.67
2022-10-13T08:50:20.104Z,18.67
2022-10-13T08:53:29.060Z,18.67
2022-10-13T08:56:34.986Z,18.73
2022-10-13T08:59:37.421Z,18.74
2022-10-13T09:02:41.648Z,18.76
2022-10-13T09:05:56.013Z,18.73
2022-10-13T09:08:59.788Z,18.73
2022-10-13T09:12:04.008Z,18.76
2022-10-13T09:15:10.300Z,18.74
2022-10-13T09:18:14.483Z,18.77
2022-10-13T09:21:21.842Z,18.79
2022-10-13T09:24:26.588Z,18.81
2022-10-13T09:27:28.910Z,18.83
2022-10-13T09:30:34.202Z,18.83
2022-10-13T09:33:37.698Z,18.86
2022-10-13T09:36:54.786Z,18.94
2022-10-13T09:40:19.700Z,18.90
2022-10-13T09:43:48.223Z,18.91
2022-10-13T09:46:59.580Z,18.90
2022-10-13T09:50:23.509Z,18.94
2022-10-13T09:53:34.285Z,18.93
2022-10-13T09:56:42.690Z,18.93
2022-10-13T09:59:53.415Z,18.93
2022-10-13T10:03:23.698Z,18.94
2022-10-13T10:06:27.996Z,18.96
2022-10-13T10:09:41.838Z,18.99
2022-10-13T10:12:45.708Z,18.91
2022-10-13T10:16:19.910Z,18.83
2022-10-13T10:19:43.854Z,18.83
2022-10-13T10:23:01.430Z,18.93
2022-10-13T10:26:22.100Z,18.97
2022-10-13T10:29:58.603Z,18.96
2022-10-13T10:33:13.294Z,18.94
2022-10-13T10:36:26.328Z,18.93
2022-10-13T10:39:37.117Z,18.90
2022-10-13T10:43:18.256Z,18.71
2022-10-13T10:46:30.946Z,18.80
2022-10-13T10:49:40.400Z,18.80
2022-10-13T10:52:48.948Z,18.81
2022-10-13T10:55:55.815Z,18.67
2022-10-13T10:59:27.251Z,18.57
2022-10-13T11:02:54.711Z,18.50
2022-10-13T11:06:05.201Z,18.47
2022-10-13T11:09:11.675Z,18.57
2022-10-13T11:12:20.260Z,18.36
2022-10-13T11:15:31.328Z,18.33
2022-10-13T11:18:55.323Z,18.49
2022-10-13T11:22:11.879Z,18.69
2022-10-13T11:25:40.412Z,18.79
2022-10-13T11:28:43.487Z,18.84
2022-10-13T11:31:53.714Z,18.91
2022-10-13T11:35:10.666Z,18.93
2022-10-13T11:38:32.448Z,18.91
2022-10-13T11:41:55.132Z,18.87
2022-10-13T11:45:01.745Z,18.96
2022-10-13T11:48:25.707Z,18.99
2022-10-13T11:51:49.589Z,19.01
2022-10-13T11:55:17.430Z,19.06
2022-10-13T11:58:22.161Z,19.03
2022-10-13T12:01:24.919Z,19.06
2022-10-13T12:04:28.978Z,19.10
2022-10-13T12:07:39.916Z,19.15
2022-10-13T12:10:42.429Z,19.20
2022-10-13T12:13:47.268Z,19.22
2022-10-13T12:20:18.334Z,19.22
2022-10-13T12:23:20.803Z,19.28
2022-10-13T12:26:25.700Z,19.31
2022-10-13T12:29:33.470Z,19.35
2022-10-13T12:32:50.598Z,19.36
2022-10-13T12:35:52.888Z,19.35
2022-10-13T12:39:02.650Z,19.36
2022-10-13T12:42:08.079Z,19.36
2022-10-13T12:45:26.627Z,19.41
2022-10-13T12:48:38.579Z,19.41
2022-10-13T12:51:43.753Z,19.39
2022-10-13T12:54:57.420Z,19.41
2022-10-13T12:57:59.809Z,19.42
2022-10-13T13:01:14.531Z,19.44
2022-10-13T13:04:23.192Z,19.47
2022-10-13T13:07:35.488Z,19.45
2022-10-13T13:10:37.675Z,19.47
2022-10-13T13:13:39.623Z,19.48
2022-10-13T13:16:42.121Z,19.48
2022-10-13T13:19:50.050Z,19.45
2022-10-13T13:22:53.657Z,19.45
2022-10-13T13:26:18.410Z,19.47
2022-10-13T13:29:20.761Z,19.47
2022-10-13T13:32:25.081Z,19.48
2022-10-13T13:35:28.431Z,19.48
2022-10-13T13:38:31.508Z,19.48
2022-10-13T13:41:34.155Z,19.50
2022-10-13T13:44:36.277Z,19.51
2022-10-13T13:47:38.892Z,19.48
2022-10-13T13:50:41.209Z,19.50
2022-10-13T13:53:43.597Z,19.50
2022-10-13T13:56:47.757Z,19.50
2022-10-13T13:59:51.444Z,19.45
2022-10-13T14:02:54.032Z,19.48
2022-10-13T14:05:56.545Z,19.45
2022-10-13T14:08:59.317Z,19.45
2022-10-13T14:12:02.360Z,19.44
2022-10-13T14:15:05.971Z,19.42
2022-10-13T14:18:08.284Z,19.44
2022-10-13T14:21:11.087Z,19.42
2022-10-13T14:24:13.857Z,19.41
2022-10-13T14:27:16.144Z,19.42
2022-10-13T14:30:18.842Z,19.41
2022-10-13T14:33:20.891Z,19.41
2022-10-13T14:36:23.508Z,19.41
2022-10-13T14:39:25.633Z,19.38
2022-10-13T14:42:28.115Z,19.39
2022-10-13T14:45:31.031Z,19.36
2022-10-13T14:48:34.931Z,19.36
2022-10-13T14:51:37.607Z,19.36
2022-10-13T14:54:44.539Z,19.36
2022-10-13T14:57:48.451Z,19.36
2022-10-13T15:00:53.801Z,19.36
2022-10-13T15:03:56.114Z,19.38
2022-10-13T15:07:00.301Z,19.35
2022-10-13T15:10:06.653Z,18.76
2022-10-13T15:13:09.551Z,18.59
2022-10-13T15:16:20.322Z,18.16
2022-10-13T15:19:22.995Z,17.86
2022-10-13T15:22:27.007Z,17.92
2022-10-13T15:25:29.463Z,18.28
2022-10-13T15:28:37.732Z,18.61
2022-10-13T15:31:42.992Z,18.84
2022-10-13T15:34:45.739Z,18.99
2022-10-13T15:37:48.187Z,19.04
2022-10-13T15:40:50.775Z,19.08
2022-10-13T15:43:53.240Z,19.12
2022-10-13T15:47:07.965Z,19.14
2022-10-13T15:50:11.079Z,19.18
2022-10-13T15:53:13.971Z,19.18
2022-10-13T15:56:17.602Z,19.18
2022-10-13T15:59:19.794Z,19.18
2022-10-13T16:02:24.401Z,19.20
2022-10-13T16:05:27.082Z,19.22
2022-10-13T16:08:31.059Z,19.22
2022-10-13T16:11:35.113Z,19.22
2022-10-13T16:14:37.915Z,19.25
2022-10-13T16:17:41.138Z,19.24
2022-10-13T16:20:45.538Z,19.22
2022-10-13T16:23:48.470Z,19.20
2022-10-13T16:26:50.817Z,19.21
2022-10-13T16:29:54.160Z,19.20
2022-10-13T16:32:58.304Z,19.20
2022-10-13T16:36:10.647Z,19.17
2022-10-13T16:39:14.056Z,19.15
2022-10-13T16:42:16.725Z,19.14
2022-10-13T16:45:35.462Z,19.11
2022-10-13T16:48:44.319Z,19.10
2022-10-13T16:51:46.696Z,19.08
2022-10-13T16:54:48.800Z,19.08
2022-10-13T16:57:51.812Z,19.07
2022-10-13T17:00:53.773Z,19.04
2022-10-13T17:03:57.776Z,19.00
2022-10-13T17:07:00.245Z,18.99
2022-10-13T17:10:03.776Z,18.97
2022-10-13T17:13:06.591Z,18.96
2022-10-13T17:16:09.070Z,18.96
2022-10-13T17:19:13.987Z,18.94
2022-10-13T17:22:16.452Z,18.93
2022-10-13T17:25:18.595Z,18.91
2022-10-13T17:28:21.083Z,18.90
2022-10-13T17:31:23.862Z,18.84
2022-10-13T17:34:26.412Z,18.81
2022-10-13T17:37:28.559Z,18.83
2022-10-13T17:40:34.860Z,18.87
2022-10-13T17:43:39.168Z,18.84
2022-10-13T17:46:41.973Z,18.89
2022-10-13T17:49:44.644Z,18.84
2022-10-13T17:52:49.907Z,18.80
2022-10-13T17:55:54.025Z,18.79
2022-10-13T17:59:00.228Z,18.76
2022-10-13T18:02:02.451Z,18.76
2022-10-13T18:05:05.430Z,18.76
2022-10-13T18:08:07.966Z,18.73
2022-10-13T18:11:15.227Z,18.71
2022-10-13T18:14:18.404Z,18.74
2022-10-13T18:17:20.965Z,18.74
2022-10-13T18:20:23.683Z,18.71
2022-10-13T18:23:30.650Z,18.74
2022-10-13T18:26:38.138Z,18.69
2022-10-13T18:29:42.650Z,18.69
2022-10-13T18:32:46.248Z,18.70
2022-10-13T18:35:50.147Z,18.71
2022-10-13T18:38:53.958Z,18.69
2022-10-13T18:41:58.095Z,18.69
2022-10-13T18:45:09.702Z,18.66
2022-10-13T18:48:12.776Z,18.66
2022-10-13T18:51:17.376Z,18.64
2022-10-13T18:54:20.078Z,18.63
2022-10-13T18:57:22.738Z,18.64
2022-10-13T19:00:25.679Z,18.64
2022-10-13T19:03:28.618Z,18.63
2022-10-13T19:06:33.036Z,18.61
2022-10-13T19:09:35.532Z,18.60
2022-10-13T19:12:38.091Z,18.60
2022-10-13T19:15:40.592Z,18.60
2022-10-13T19:18:43.726Z,18.56
2022-10-13T19:21:45.964Z,18.55
2022-10-13T19:24:48.660Z,18.53
2022-10-13T19:27:55.236Z,18.57
2022-10-13T19:30:58.704Z,18.55
2022-10-13T19:34:02.115Z,18.56
2022-10-13T19:37:05.557Z,18.55
2022-10-13T19:40:08.691Z,18.52
2022-10-13T19:43:11.307Z,18.55
2022-10-13T19:46:13.754Z,18.52
2022-10-13T19:49:19.366Z,18.49
2022-10-13T19:52:24.077Z,18.56
2022-10-13T19:55:27.041Z,18.56
2022-10-13T19:58:30.471Z,18.57
2022-10-13T20:01:40.783Z,18.59
2022-10-13T20:04:48.099Z,18.59
2022-10-13T20:07:50.526Z,18.57
2022-10-13T20:10:52.447Z,18.57
2022-10-13T20:13:54.643Z,18.57
2022-10-13T20:16:58.971Z,18.56
2022-10-13T20:20:01.197Z,18.52
2022-10-13T20:23:03.556Z,18.49
2022-10-13T20:26:12.797Z,18.50
2022-10-13T20:29:15.850Z,18.49
2022-10-13T20:32:18.578Z,18.47
2022-10-13T20:35:21.586Z,18.45
2022-10-13T20:38:24.237Z,18.42
2022-10-13T20:41:31.327Z,18.40
2022-10-13T20:44:34.008Z,18.39
2022-10-13T20:47:36.163Z,18.45
2022-10-13T20:50:39.961Z,18.39
2022-10-13T20:53:44.399Z,18.39
2022-10-13T20:56:48.407Z,18.37
2022-10-13T20:59:51.128Z,18.37
2022-10-13T21:02:55.329Z,18.37
2022-10-13T21:06:03.349Z,18.37
2022-10-13T21:09:07.938Z,18.37
2022-10-13T21:12:11.077Z,18.37
2022-10-13T21:15:13.669Z,18.42
2022-10-13T21:18:16.501Z,18.36
2022-10-13T21:21:22.104Z,18.36
2022-10-13T21:24:26.358Z,18.39
2022-10-13T21:27:29.155Z,18.37
2022-10-13T21:30:32.079Z,18.36
2022-10-13T21:33:35.828Z,18.36
2022-10-13T21:36:42.675Z,18.36
2022-10-13T21:39:47.898Z,18.37
2022-10-13T21:42:50.133Z,18.33
2022-10-13T21:45:52.695Z,18.32
2022-10-13T21:48:57.324Z,18.33
2022-10-13T21:51:59.955Z,18.35
2022-10-13T21:55:05.647Z,18.30
2022-10-13T21:58:07.959Z,18.32
2022-10-13T22:01:10.721Z,18.30
2022-10-13T22:04:14.527Z,18.28
2022-10-13T22:07:16.755Z,18.29
2022-10-13T22:10:19.828Z,18.26
2022-10-13T22:13:22.036Z,18.28
2022-10-13T22:16:31.093Z,18.32
2022-10-13T22:19:33.250Z,18.28
2022-10-13T22:22:37.397Z,18.29
2022-10-13T22:25:46.493Z,18.28
2022-10-13T22:28:51.592Z,18.28
2022-10-13T22:31:58.274Z,18.24
2022-10-13T22:35:00.754Z,18.26
2022-10-13T22:38:03.588Z,18.24
2022-10-13T22:41:07.592Z,18.24
2022-10-13T22:44:09.961Z,18.22
2022-10-13T22:47:12.390Z,18.24
2022-10-13T22:50:14.400Z,18.24
2022-10-13T22:53:16.887Z,18.24
2022-10-13T22:56:22.145Z,18.24
2022-10-13T22:59:26.885Z,18.19
2022-10-13T23:02:28.906Z,18.24
2022-10-13T23:05:32.230Z,18.22
2022-10-13T23:08:34.838Z,18.19
2022-10-13T23:11:37.347Z,18.16
2022-10-13T23:14:40.805Z,18.19
2022-10-13T23:17:43.275Z,18.16
2022-10-13T23:20:45.552Z,18.16
2022-10-13T23:24:00.099Z,18.16
2022-10-13T23:27:02.361Z,18.15
2022-10-13T23:30:06.444Z,18.15
2022-10-13T23:33:08.680Z,18.15
2022-10-13T23:36:19.004Z,18.18
2022-10-13T23:39:24.673Z,18.16
2022-10-13T23:42:27.129Z,18.16
2022-10-13T23:45:29.285Z,18.12
2022-10-13T23:48:31.486Z,18.15
2022-10-13T23:51:34.009Z,18.10
2022-10-13T23:54:36.470Z,18.09
2022-10-13T23:57:39.712Z,18.06
